sensor_id;sensor_type;location;lat;lon;timestamp;temperature;humidity
4081;DHT22;2055;50.074;8.436;2023-03-13T00:00:54;8.60;99.90
4081;DHT22;2055;50.074;8.436;2023-03-13T00:03:19;8.60;99.90
4081;DHT22;2055;50.074;8.436;2023-03-13T00:05:45;8.60;99.90
4081;DHT22;2055;50.074;8.436;2023-03-13T00:08:11;8.50;99.90
4081;DHT22;2055;50.074;8.436;2023-03-13T00:10:37;8.50;99.90
4081;DHT22;2055;50.074;8.436;2023-03-13T00:13:03;8.50;99.90
4081;DHT22;2055;50.074;8.436;2023-03-13T00:15:29;8.90;99.90
4081;DHT22;2055;50.074;8.436;2023-03-13T00:17:54;8.50;99.90
4081;DHT22;2055;50.074;8.436;2023-03-13T00:20:20;8.50;99.90
4081;DHT22;2055;50.074;8.436;2023-03-13T00:22:45;8.60;99.90
4081;DHT22;2055;50.074;8.436;2023-03-13T00:25:11;8.70;99.90
4081;DHT22;2055;50.074;8.436;2023-03-13T00:27:36;8.80;99.90
4081;DHT22;2055;50.074;8.436;2023-03-13T00:30:02;8.80;99.90
4081;DHT22;2055;50.074;8.436;2023-03-13T00:32:28;8.80;99.90
4081;DHT22;2055;50.074;8.436;2023-03-13T00:34:53;8.90;99.90
4081;DHT22;2055;50.074;8.436;2023-03-13T00:37:19;8.90;99.90
4081;DHT22;2055;50.074;8.436;2023-03-13T00:39:44;8.90;99.90
4081;DHT22;2055;50.074;8.436;2023-03-13T00:42:10;8.90;99.90
4081;DHT22;2055;50.074;8.436;2023-03-13T00:44:35;8.90;99.90
4081;DHT22;2055;50.074;8.436;2023-03-13T00:47:01;8.90;99.90
4081;DHT22;2055;50.074;8.436;2023-03-13T00:49:27;8.90;99.90
4081;DHT22;2055;50.074;8.436;2023-03-13T00:51:52;8.90;99.90
4081;DHT22;2055;50.074;8.436;2023-03-13T00:54:18;8.90;99.90
4081;DHT22;2055;50.074;8.436;2023-03-13T00:56:43;8.90;99.90
4081;DHT22;2055;50.074;8.436;2023-03-13T00:59:09;8.90;99.90
4081;DHT22;2055;50.074;8.436;2023-03-13T01:01:35;8.80;99.90
4081;DHT22;2055;50.074;8.436;2023-03-13T01:04:04;8.80;99.90
4081;DHT22;2055;50.074;8.436;2023-03-13T01:06:31;8.90;99.90
4081;DHT22;2055;50.074;8.436;2023-03-13T01:08:57;8.90;99.90
4081;DHT22;2055;50.074;8.436;2023-03-13T01:11:25;9.00;99.90
4081;DHT22;2055;50.074;8.436;2023-03-13T01:13:59;9.00;99.90
4081;DHT22;2055;50.074;8.436;2023-03-13T01:16:27;9.00;99.90
4081;DHT22;2055;50.074;8.436;2023-03-13T01:18:56;9.10;99.90
4081;DHT22;2055;50.074;8.436;2023-03-13T01:21:23;9.00;99.90
4081;DHT22;2055;50.074;8.436;2023-03-13T01:23:50;9.00;99.90
4081;DHT22;2055;50.074;8.436;2023-03-13T01:26:16;9.00;99.90
4081;DHT22;2055;50.074;8.436;2023-03-13T01:28:42;9.00;99.90
4081;DHT22;2055;50.074;8.436;2023-03-13T01:31:34;9.00;99.90
4081;DHT22;2055;50.074;8.436;2023-03-13T01:34:03;9.00;99.90
4081;DHT22;2055;50.074;8.436;2023-03-13T01:36:29;9.00;99.90
4081;DHT22;2055;50.074;8.436;2023-03-13T01:38:57;8.90;99.90
4081;DHT22;2055;50.074;8.436;2023-03-13T01:41:23;9.00;99.90
4081;DHT22;2055;50.074;8.436;2023-03-13T01:43:50;9.00;99.90
4081;DHT22;2055;50.074;8.436;2023-03-13T01:46:21;9.00;99.90
4081;DHT22;2055;50.074;8.436;2023-03-13T01:49:02;9.00;99.90
4081;DHT22;2055;50.074;8.436;2023-03-13T01:51:45;9.00;99.90
4081;DHT22;2055;50.074;8.436;2023-03-13T01:56:53;9.00;99.90
4081;DHT22;2055;50.074;8.436;2023-03-13T01:59:27;9.00;99.90
4081;DHT22;2055;50.074;8.436;2023-03-13T02:01:58;8.90;99.90
4081;DHT22;2055;50.074;8.436;2023-03-13T02:04:26;8.90;99.90
4081;DHT22;2055;50.074;8.436;2023-03-13T02:06:55;8.80;99.90
4081;DHT22;2055;50.074;8.436;2023-03-13T02:09:25;8.80;99.90
4081;DHT22;2055;50.074;8.436;2023-03-13T02:14:22;8.80;99.90
4081;DHT22;2055;50.074;8.436;2023-03-13T02:16:49;8.80;99.90
4081;DHT22;2055;50.074;8.436;2023-03-13T02:19:28;8.70;99.90
4081;DHT22;2055;50.074;8.436;2023-03-13T02:22:01;8.70;99.90
4081;DHT22;2055;50.074;8.436;2023-03-13T02:27:13;7.40;99.90
4081;DHT22;2055;50.074;8.436;2023-03-13T02:29:40;8.60;99.90
4081;DHT22;2055;50.074;8.436;2023-03-13T02:32:06;8.60;99.90
4081;DHT22;2055;50.074;8.436;2023-03-13T02:34:34;8.50;99.90
4081;DHT22;2055;50.074;8.436;2023-03-13T02:37:02;8.40;99.90
4081;DHT22;2055;50.074;8.436;2023-03-13T02:39:30;8.40;99.90
4081;DHT22;2055;50.074;8.436;2023-03-13T02:41:57;8.40;99.90
4081;DHT22;2055;50.074;8.436;2023-03-13T02:44:24;8.30;99.90
4081;DHT22;2055;50.074;8.436;2023-03-13T02:46:50;8.30;99.90
4081;DHT22;2055;50.074;8.436;2023-03-13T02:49:25;8.20;99.90
4081;DHT22;2055;50.074;8.436;2023-03-13T02:51:53;8.20;99.90
4081;DHT22;2055;50.074;8.436;2023-03-13T02:54:34;8.20;99.90
4081;DHT22;2055;50.074;8.436;2023-03-13T02:57:02;8.20;99.90
4081;DHT22;2055;50.074;8.436;2023-03-13T02:59:29;8.20;99.90
4081;DHT22;2055;50.074;8.436;2023-03-13T03:01:55;8.20;99.90
4081;DHT22;2055;50.074;8.436;2023-03-13T03:04:22;8.40;99.90
4081;DHT22;2055;50.074;8.436;2023-03-13T03:06:49;8.40;99.90
4081;DHT22;2055;50.074;8.436;2023-03-13T03:09:15;8.50;99.90
4081;DHT22;2055;50.074;8.436;2023-03-13T03:11:41;8.50;99.90
4081;DHT22;2055;50.074;8.436;2023-03-13T03:14:07;8.60;99.90
4081;DHT22;2055;50.074;8.436;2023-03-13T03:16:32;8.60;99.90
4081;DHT22;2055;50.074;8.436;2023-03-13T03:18:58;8.60;99.90
4081;DHT22;2055;50.074;8.436;2023-03-13T03:21:23;8.60;99.90
4081;DHT22;2055;50.074;8.436;2023-03-13T03:23:49;8.60;99.90
4081;DHT22;2055;50.074;8.436;2023-03-13T03:26:15;8.70;99.90
4081;DHT22;2055;50.074;8.436;2023-03-13T03:28:41;8.70;99.90
4081;DHT22;2055;50.074;8.436;2023-03-13T03:31:08;8.70;99.90
4081;DHT22;2055;50.074;8.436;2023-03-13T03:33:35;8.70;99.90
4081;DHT22;2055;50.074;8.436;2023-03-13T03:36:12;8.60;99.90
4081;DHT22;2055;50.074;8.436;2023-03-13T03:38:38;8.60;99.90
4081;DHT22;2055;50.074;8.436;2023-03-13T03:41:08;8.60;99.90
4081;DHT22;2055;50.074;8.436;2023-03-13T03:43:33;8.60;99.90
4081;DHT22;2055;50.074;8.436;2023-03-13T03:46:00;8.50;99.90
4081;DHT22;2055;50.074;8.436;2023-03-13T03:48:25;8.50;99.90
4081;DHT22;2055;50.074;8.436;2023-03-13T03:50:51;8.50;99.90
4081;DHT22;2055;50.074;8.436;2023-03-13T03:53:16;8.50;99.90
4081;DHT22;2055;50.074;8.436;2023-03-13T03:55:42;8.50;99.90
4081;DHT22;2055;50.074;8.436;2023-03-13T03:58:07;8.50;99.90
4081;DHT22;2055;50.074;8.436;2023-03-13T04:00:33;8.50;99.90
4081;DHT22;2055;50.074;8.436;2023-03-13T04:02:58;8.50;99.90
4081;DHT22;2055;50.074;8.436;2023-03-13T04:05:24;8.50;99.90
4081;DHT22;2055;50.074;8.436;2023-03-13T04:07:50;8.50;99.90
4081;DHT22;2055;50.074;8.436;2023-03-13T04:10:16;8.50;99.90
4081;DHT22;2055;50.074;8.436;2023-03-13T04:12:42;8.70;99.90
4081;DHT22;2055;50.074;8.436;2023-03-13T04:15:08;8.40;99.90
4081;DHT22;2055;50.074;8.436;2023-03-13T04:17:33;8.40;99.90
4081;DHT22;2055;50.074;8.436;2023-03-13T04:19:59;8.40;99.90
4081;DHT22;2055;50.074;8.436;2023-03-13T04:22:25;8.60;99.90
4081;DHT22;2055;50.074;8.436;2023-03-13T04:24:51;8.40;99.90
4081;DHT22;2055;50.074;8.436;2023-03-13T04:27:16;8.40;99.90
4081;DHT22;2055;50.074;8.436;2023-03-13T04:29:42;8.40;99.90
4081;DHT22;2055;50.074;8.436;2023-03-13T04:32:07;8.40;99.90
4081;DHT22;2055;50.074;8.436;2023-03-13T04:34:33;8.40;99.90
4081;DHT22;2055;50.074;8.436;2023-03-13T04:36:59;8.80;99.90
4081;DHT22;2055;50.074;8.436;2023-03-13T04:39:24;8.40;99.90
4081;DHT22;2055;50.074;8.436;2023-03-13T04:41:54;8.40;99.90
4081;DHT22;2055;50.074;8.436;2023-03-13T04:44:20;8.40;99.90
4081;DHT22;2055;50.074;8.436;2023-03-13T04:46:46;8.40;99.90
4081;DHT22;2055;50.074;8.436;2023-03-13T04:49:12;8.40;99.90
4081;DHT22;2055;50.074;8.436;2023-03-13T04:51:42;8.40;99.90
4081;DHT22;2055;50.074;8.436;2023-03-13T04:54:07;8.40;99.90
4081;DHT22;2055;50.074;8.436;2023-03-13T04:56:33;8.50;99.90
4081;DHT22;2055;50.074;8.436;2023-03-13T04:58:59;8.50;99.90
4081;DHT22;2055;50.074;8.436;2023-03-13T05:01:24;8.40;99.90
4081;DHT22;2055;50.074;8.436;2023-03-13T05:03:50;8.50;99.90
4081;DHT22;2055;50.074;8.436;2023-03-13T05:06:16;8.50;99.90
4081;DHT22;2055;50.074;8.436;2023-03-13T05:08:42;8.50;99.90
4081;DHT22;2055;50.074;8.436;2023-03-13T05:11:08;8.50;99.90
4081;DHT22;2055;50.074;8.436;2023-03-13T05:13:33;8.60;99.90
4081;DHT22;2055;50.074;8.436;2023-03-13T05:15:59;8.60;99.90
4081;DHT22;2055;50.074;8.436;2023-03-13T05:18:25;8.60;99.90
4081;DHT22;2055;50.074;8.436;2023-03-13T05:20:50;8.70;99.90
4081;DHT22;2055;50.074;8.436;2023-03-13T05:23:16;8.60;99.90
4081;DHT22;2055;50.074;8.436;2023-03-13T05:25:42;8.70;99.90
4081;DHT22;2055;50.074;8.436;2023-03-13T05:28:07;8.80;99.90
4081;DHT22;2055;50.074;8.436;2023-03-13T05:30:33;10.90;99.90
4081;DHT22;2055;50.074;8.436;2023-03-13T05:32:59;8.80;99.90
4081;DHT22;2055;50.074;8.436;2023-03-13T05:35:24;8.80;99.90
4081;DHT22;2055;50.074;8.436;2023-03-13T05:37:50;9.00;99.90
4081;DHT22;2055;50.074;8.436;2023-03-13T05:40:15;9.10;99.90
4081;DHT22;2055;50.074;8.436;2023-03-13T05:42:41;9.10;99.90
4081;DHT22;2055;50.074;8.436;2023-03-13T05:45:07;9.20;99.90
4081;DHT22;2055;50.074;8.436;2023-03-13T05:47:36;9.30;99.90
4081;DHT22;2055;50.074;8.436;2023-03-13T05:50:03;9.40;99.90
4081;DHT22;2055;50.074;8.436;2023-03-13T05:52:29;9.40;99.90
4081;DHT22;2055;50.074;8.436;2023-03-13T05:54:55;9.50;99.90
4081;DHT22;2055;50.074;8.436;2023-03-13T05:57:21;9.70;99.90
4081;DHT22;2055;50.074;8.436;2023-03-13T05:59:46;10.00;99.90
4081;DHT22;2055;50.074;8.436;2023-03-13T06:02:12;10.10;99.90
4081;DHT22;2055;50.074;8.436;2023-03-13T06:04:37;10.20;99.90
4081;DHT22;2055;50.074;8.436;2023-03-13T06:07:03;10.20;99.90
4081;DHT22;2055;50.074;8.436;2023-03-13T06:09:29;10.30;99.90
4081;DHT22;2055;50.074;8.436;2023-03-13T06:11:54;10.30;99.90
4081;DHT22;2055;50.074;8.436;2023-03-13T06:14:20;10.40;99.90
4081;DHT22;2055;50.074;8.436;2023-03-13T06:16:45;10.40;99.90
4081;DHT22;2055;50.074;8.436;2023-03-13T06:19:11;10.50;99.90
4081;DHT22;2055;50.074;8.436;2023-03-13T06:21:37;10.60;99.90
4081;DHT22;2055;50.074;8.436;2023-03-13T06:24:03;10.60;99.90
4081;DHT22;2055;50.074;8.436;2023-03-13T06:26:28;10.70;99.90
4081;DHT22;2055;50.074;8.436;2023-03-13T06:28:54;10.70;99.90
4081;DHT22;2055;50.074;8.436;2023-03-13T06:31:20;10.70;99.90
4081;DHT22;2055;50.074;8.436;2023-03-13T06:33:45;10.80;99.90
4081;DHT22;2055;50.074;8.436;2023-03-13T06:36:11;10.90;99.90
4081;DHT22;2055;50.074;8.436;2023-03-13T06:38:36;10.90;99.90
4081;DHT22;2055;50.074;8.436;2023-03-13T06:41:02;11.00;99.90
4081;DHT22;2055;50.074;8.436;2023-03-13T06:43:28;11.10;99.90
4081;DHT22;2055;50.074;8.436;2023-03-13T06:45:53;11.10;99.90
4081;DHT22;2055;50.074;8.436;2023-03-13T06:48:19;11.20;99.90
4081;DHT22;2055;50.074;8.436;2023-03-13T06:50:47;11.20;99.90
4081;DHT22;2055;50.074;8.436;2023-03-13T06:53:15;11.30;99.90
4081;DHT22;2055;50.074;8.436;2023-03-13T06:55:41;11.40;99.90
4081;DHT22;2055;50.074;8.436;2023-03-13T06:58:07;11.40;99.90
4081;DHT22;2055;50.074;8.436;2023-03-13T07:00:33;11.40;99.90
4081;DHT22;2055;50.074;8.436;2023-03-13T07:02:59;11.40;99.90
4081;DHT22;2055;50.074;8.436;2023-03-13T07:05:24;11.50;99.90
4081;DHT22;2055;50.074;8.436;2023-03-13T07:07:50;11.50;99.90
4081;DHT22;2055;50.074;8.436;2023-03-13T07:10:16;11.60;99.90
4081;DHT22;2055;50.074;8.436;2023-03-13T07:12:41;11.60;99.90
4081;DHT22;2055;50.074;8.436;2023-03-13T07:15:07;11.70;99.90
4081;DHT22;2055;50.074;8.436;2023-03-13T07:17:34;11.70;99.90
4081;DHT22;2055;50.074;8.436;2023-03-13T07:19:59;11.70;99.90
4081;DHT22;2055;50.074;8.436;2023-03-13T07:22:25;11.70;99.90
4081;DHT22;2055;50.074;8.436;2023-03-13T07:24:50;11.80;99.90
4081;DHT22;2055;50.074;8.436;2023-03-13T07:27:16;11.80;99.90
4081;DHT22;2055;50.074;8.436;2023-03-13T07:29:45;11.80;99.90
4081;DHT22;2055;50.074;8.436;2023-03-13T07:32:10;11.90;99.90
4081;DHT22;2055;50.074;8.436;2023-03-13T07:34:36;11.90;99.90
4081;DHT22;2055;50.074;8.436;2023-03-13T07:37:01;11.90;99.90
4081;DHT22;2055;50.074;8.436;2023-03-13T07:39:27;11.90;99.90
4081;DHT22;2055;50.074;8.436;2023-03-13T07:41:52;12.00;99.90
4081;DHT22;2055;50.074;8.436;2023-03-13T07:44:18;12.10;99.90
4081;DHT22;2055;50.074;8.436;2023-03-13T07:46:43;12.20;99.90
4081;DHT22;2055;50.074;8.436;2023-03-13T07:49:09;12.20;99.90
4081;DHT22;2055;50.074;8.436;2023-03-13T07:51:34;12.30;99.90
4081;DHT22;2055;50.074;8.436;2023-03-13T07:54:00;12.30;99.90
4081;DHT22;2055;50.074;8.436;2023-03-13T07:56:25;12.30;99.90
4081;DHT22;2055;50.074;8.436;2023-03-13T07:58:51;12.40;99.90
4081;DHT22;2055;50.074;8.436;2023-03-13T08:01:24;12.50;99.90
4081;DHT22;2055;50.074;8.436;2023-03-13T08:03:50;12.50;99.90
4081;DHT22;2055;50.074;8.436;2023-03-13T08:06:21;12.60;99.90
4081;DHT22;2055;50.074;8.436;2023-03-13T08:08:48;12.60;99.90
4081;DHT22;2055;50.074;8.436;2023-03-13T08:11:16;12.70;99.90
4081;DHT22;2055;50.074;8.436;2023-03-13T08:13:43;12.70;99.90
4081;DHT22;2055;50.074;8.436;2023-03-13T08:16:15;12.70;99.90
4081;DHT22;2055;50.074;8.436;2023-03-13T08:18:43;12.70;99.90
4081;DHT22;2055;50.074;8.436;2023-03-13T08:21:12;12.70;99.90
4081;DHT22;2055;50.074;8.436;2023-03-13T08:23:38;12.80;99.90
4081;DHT22;2055;50.074;8.436;2023-03-13T08:26:16;15.40;99.90
4081;DHT22;2055;50.074;8.436;2023-03-13T08:28:43;12.80;99.90
4081;DHT22;2055;50.074;8.436;2023-03-13T08:31:21;12.80;99.90
4081;DHT22;2055;50.074;8.436;2023-03-13T08:33:47;12.80;99.90
4081;DHT22;2055;50.074;8.436;2023-03-13T08:36:27;12.80;99.90
4081;DHT22;2055;50.074;8.436;2023-03-13T08:38:56;12.80;99.90
4081;DHT22;2055;50.074;8.436;2023-03-13T08:41:24;12.80;99.90
4081;DHT22;2055;50.074;8.436;2023-03-13T08:43:54;12.80;99.90
4081;DHT22;2055;50.074;8.436;2023-03-13T08:46:20;12.90;99.90
4081;DHT22;2055;50.074;8.436;2023-03-13T08:48:49;12.90;99.90
4081;DHT22;2055;50.074;8.436;2023-03-13T08:51:16;12.90;99.90
4081;DHT22;2055;50.074;8.436;2023-03-13T08:53:42;12.90;99.90
4081;DHT22;2055;50.074;8.436;2023-03-13T08:56:10;12.80;99.90
4081;DHT22;2055;50.074;8.436;2023-03-13T08:58:36;12.80;99.90
4081;DHT22;2055;50.074;8.436;2023-03-13T09:01:07;12.70;99.90
4081;DHT22;2055;50.074;8.436;2023-03-13T09:03:32;12.60;99.90
4081;DHT22;2055;50.074;8.436;2023-03-13T09:05:59;12.60;99.90
4081;DHT22;2055;50.074;8.436;2023-03-13T09:08:25;12.60;99.90
4081;DHT22;2055;50.074;8.436;2023-03-13T09:10:58;12.70;99.90
4081;DHT22;2055;50.074;8.436;2023-03-13T09:13:26;12.70;99.90
4081;DHT22;2055;50.074;8.436;2023-03-13T09:16:15;12.80;99.90
4081;DHT22;2055;50.074;8.436;2023-03-13T09:18:41;12.80;99.90
4081;DHT22;2055;50.074;8.436;2023-03-13T09:21:15;12.80;99.90
4081;DHT22;2055;50.074;8.436;2023-03-13T09:23:41;12.80;99.90
4081;DHT22;2055;50.074;8.436;2023-03-13T09:26:07;13.20;99.90
4081;DHT22;2055;50.074;8.436;2023-03-13T09:28:33;12.90;99.90
4081;DHT22;2055;50.074;8.436;2023-03-13T09:31:10;12.90;99.90
4081;DHT22;2055;50.074;8.436;2023-03-13T09:33:36;13.00;99.90
4081;DHT22;2055;50.074;8.436;2023-03-13T09:36:03;13.00;99.90
4081;DHT22;2055;50.074;8.436;2023-03-13T09:38:28;13.00;99.90
4081;DHT22;2055;50.074;8.436;2023-03-13T09:40:54;13.00;99.90
4081;DHT22;2055;50.074;8.436;2023-03-13T09:45:58;12.90;99.90
4081;DHT22;2055;50.074;8.436;2023-03-13T09:48:38;13.00;99.90
4081;DHT22;2055;50.074;8.436;2023-03-13T09:51:23;13.00;99.90
4081;DHT22;2055;50.074;8.436;2023-03-13T09:54:27;13.10;99.90
4081;DHT22;2055;50.074;8.436;2023-03-13T09:57:23;13.10;99.90
4081;DHT22;2055;50.074;8.436;2023-03-13T09:59:54;13.20;99.90
4081;DHT22;2055;50.074;8.436;2023-03-13T10:02:31;13.30;99.90
4081;DHT22;2055;50.074;8.436;2023-03-13T10:05:19;13.30;99.90
4081;DHT22;2055;50.074;8.436;2023-03-13T10:07:45;13.40;99.90
4081;DHT22;2055;50.074;8.436;2023-03-13T10:10:20;13.70;99.90
4081;DHT22;2055;50.074;8.436;2023-03-13T10:12:51;13.80;99.90
4081;DHT22;2055;50.074;8.436;2023-03-13T10:15:29;14.00;99.90
4081;DHT22;2055;50.074;8.436;2023-03-13T10:17:58;13.80;99.90
4081;DHT22;2055;50.074;8.436;2023-03-13T10:20:33;13.80;99.90
4081;DHT22;2055;50.074;8.436;2023-03-13T10:23:06;13.60;99.90
4081;DHT22;2055;50.074;8.436;2023-03-13T10:25:34;13.70;99.90
4081;DHT22;2055;50.074;8.436;2023-03-13T10:28:01;13.70;99.90
4081;DHT22;2055;50.074;8.436;2023-03-13T10:30:29;13.60;99.90
4081;DHT22;2055;50.074;8.436;2023-03-13T10:33:20;13.60;99.90
4081;DHT22;2055;50.074;8.436;2023-03-13T10:36:03;13.70;99.90
4081;DHT22;2055;50.074;8.436;2023-03-13T10:38:32;13.70;99.90
4081;DHT22;2055;50.074;8.436;2023-03-13T10:41:05;13.80;99.90
4081;DHT22;2055;50.074;8.436;2023-03-13T10:43:33;13.80;99.90
4081;DHT22;2055;50.074;8.436;2023-03-13T10:45:59;13.90;99.90
4081;DHT22;2055;50.074;8.436;2023-03-13T10:48:29;14.00;99.90
4081;DHT22;2055;50.074;8.436;2023-03-13T10:50:55;14.00;99.90
4081;DHT22;2055;50.074;8.436;2023-03-13T10:53:31;14.00;99.90
4081;DHT22;2055;50.074;8.436;2023-03-13T10:56:13;14.00;99.90
4081;DHT22;2055;50.074;8.436;2023-03-13T10:58:44;14.00;99.90
4081;DHT22;2055;50.074;8.436;2023-03-13T11:01:28;13.90;99.90
4081;DHT22;2055;50.074;8.436;2023-03-13T11:03:57;13.80;99.90
4081;DHT22;2055;50.074;8.436;2023-03-13T11:06:32;13.80;99.90
4081;DHT22;2055;50.074;8.436;2023-03-13T11:09:14;13.80;99.90
4081;DHT22;2055;50.074;8.436;2023-03-13T11:12:10;13.60;99.90
4081;DHT22;2055;50.074;8.436;2023-03-13T11:14:34;13.60;99.90
4081;DHT22;2055;50.074;8.436;2023-03-13T11:17:42;13.50;99.90
4081;DHT22;2055;50.074;8.436;2023-03-13T11:25:29;13.80;99.90
4081;DHT22;2055;50.074;8.436;2023-03-13T11:30:44;13.90;99.90
4081;DHT22;2055;50.074;8.436;2023-03-13T11:33:20;13.90;99.90
4081;DHT22;2055;50.074;8.436;2023-03-13T11:38:35;14.00;99.90
4081;DHT22;2055;50.074;8.436;2023-03-13T11:46:29;14.00;99.90
4081;DHT22;2055;50.074;8.436;2023-03-13T11:51:59;14.10;99.90
4081;DHT22;2055;50.074;8.436;2023-03-13T11:54:51;14.10;99.90
4081;DHT22;2055;50.074;8.436;2023-03-13T11:57:26;14.20;99.90
4081;DHT22;2055;50.074;8.436;2023-03-13T12:00:16;14.20;99.90
4081;DHT22;2055;50.074;8.436;2023-03-13T12:05:42;14.40;99.90
4081;DHT22;2055;50.074;8.436;2023-03-13T12:08:17;14.40;99.90
4081;DHT22;2055;50.074;8.436;2023-03-13T12:10:47;14.40;99.90
4081;DHT22;2055;50.074;8.436;2023-03-13T12:13:20;14.40;99.90
4081;DHT22;2055;50.074;8.436;2023-03-13T12:15:50;14.40;99.90
4081;DHT22;2055;50.074;8.436;2023-03-13T12:18:29;14.30;99.90
4081;DHT22;2055;50.074;8.436;2023-03-13T12:21:03;14.30;99.90
4081;DHT22;2055;50.074;8.436;2023-03-13T12:23:44;14.20;99.90
4081;DHT22;2055;50.074;8.436;2023-03-13T12:26:14;14.40;99.90
4081;DHT22;2055;50.074;8.436;2023-03-13T12:29:05;14.10;99.90
4081;DHT22;2055;50.074;8.436;2023-03-13T12:32:18;14.10;99.90
4081;DHT22;2055;50.074;8.436;2023-03-13T12:37:32;14.00;99.90
4081;DHT22;2055;50.074;8.436;2023-03-13T12:42:48;13.80;99.90
4081;DHT22;2055;50.074;8.436;2023-03-13T12:45:18;13.80;99.90
4081;DHT22;2055;50.074;8.436;2023-03-13T12:53:09;13.60;99.90
4081;DHT22;2055;50.074;8.436;2023-03-13T12:56:24;13.60;99.90
4081;DHT22;2055;50.074;8.436;2023-03-13T13:01:32;13.60;99.90
4081;DHT22;2055;50.074;8.436;2023-03-13T13:04:03;13.60;99.90
4081;DHT22;2055;50.074;8.436;2023-03-13T13:11:48;13.70;99.90
4081;DHT22;2055;50.074;8.436;2023-03-13T13:16:47;14.30;99.90
4081;DHT22;2055;50.074;8.436;2023-03-13T13:27:48;14.60;99.90
4081;DHT22;2055;50.074;8.436;2023-03-13T13:32:47;14.60;99.90
4081;DHT22;2055;50.074;8.436;2023-03-13T13:35:32;14.80;99.90
4081;DHT22;2055;50.074;8.436;2023-03-13T13:43:44;16.40;99.90
4081;DHT22;2055;50.074;8.436;2023-03-13T13:46:28;16.50;99.90
4081;DHT22;2055;50.074;8.436;2023-03-13T13:51:31;16.90;99.90
4081;DHT22;2055;50.074;8.436;2023-03-13T13:54:01;16.90;99.90
4081;DHT22;2055;50.074;8.436;2023-03-13T13:56:29;16.60;99.90
4081;DHT22;2055;50.074;8.436;2023-03-13T14:01:21;16.50;99.90
4081;DHT22;2055;50.074;8.436;2023-03-13T14:03:50;16.40;99.90
4081;DHT22;2055;50.074;8.436;2023-03-13T14:06:19;16.20;99.90
4081;DHT22;2055;50.074;8.436;2023-03-13T14:08:47;16.20;99.90
4081;DHT22;2055;50.074;8.436;2023-03-13T14:11:24;16.10;99.90
4081;DHT22;2055;50.074;8.436;2023-03-13T14:14:17;16.00;99.90
4081;DHT22;2055;50.074;8.436;2023-03-13T14:16:45;16.00;99.90
4081;DHT22;2055;50.074;8.436;2023-03-13T14:19:40;16.10;99.90
4081;DHT22;2055;50.074;8.436;2023-03-13T14:22:08;16.20;99.90
4081;DHT22;2055;50.074;8.436;2023-03-13T14:24:35;16.20;99.90
4081;DHT22;2055;50.074;8.436;2023-03-13T14:27:02;16.20;99.90
4081;DHT22;2055;50.074;8.436;2023-03-13T14:29:38;16.10;99.90
4081;DHT22;2055;50.074;8.436;2023-03-13T14:32:03;16.10;99.90
4081;DHT22;2055;50.074;8.436;2023-03-13T14:34:30;16.30;99.90
4081;DHT22;2055;50.074;8.436;2023-03-13T14:36:57;16.20;99.90
4081;DHT22;2055;50.074;8.436;2023-03-13T14:42:09;16.10;99.90
4081;DHT22;2055;50.074;8.436;2023-03-13T14:44:35;16.00;99.90
4081;DHT22;2055;50.074;8.436;2023-03-13T14:47:06;16.00;99.90
4081;DHT22;2055;50.074;8.436;2023-03-13T14:49:33;15.90;99.90
4081;DHT22;2055;50.074;8.436;2023-03-13T14:52:16;15.60;99.90
4081;DHT22;2055;50.074;8.436;2023-03-13T14:57:20;15.60;99.90
4081;DHT22;2055;50.074;8.436;2023-03-13T14:59:48;15.50;99.90
4081;DHT22;2055;50.074;8.436;2023-03-13T15:02:22;15.30;99.90
4081;DHT22;2055;50.074;8.436;2023-03-13T15:04:49;15.20;99.90
4081;DHT22;2055;50.074;8.436;2023-03-13T15:07:15;15.00;99.90
4081;DHT22;2055;50.074;8.436;2023-03-13T15:09:42;14.60;99.90
4081;DHT22;2055;50.074;8.436;2023-03-13T15:12:13;13.90;99.90
4081;DHT22;2055;50.074;8.436;2023-03-13T15:14:42;13.30;99.90
4081;DHT22;2055;50.074;8.436;2023-03-13T15:17:27;13.20;99.90
4081;DHT22;2055;50.074;8.436;2023-03-13T15:19:55;13.10;99.90
4081;DHT22;2055;50.074;8.436;2023-03-13T15:22:28;13.00;99.90
4081;DHT22;2055;50.074;8.436;2023-03-13T15:24:55;13.00;99.90
4081;DHT22;2055;50.074;8.436;2023-03-13T15:27:23;12.80;99.90
4081;DHT22;2055;50.074;8.436;2023-03-13T15:29:49;12.60;99.90
4081;DHT22;2055;50.074;8.436;2023-03-13T15:32:35;12.50;99.90
4081;DHT22;2055;50.074;8.436;2023-03-13T15:35:04;12.60;99.90
4081;DHT22;2055;50.074;8.436;2023-03-13T15:37:39;12.80;99.90
4081;DHT22;2055;50.074;8.436;2023-03-13T15:40:08;12.80;99.90
4081;DHT22;2055;50.074;8.436;2023-03-13T15:42:37;12.80;99.90
4081;DHT22;2055;50.074;8.436;2023-03-13T15:45:03;12.80;99.90
4081;DHT22;2055;50.074;8.436;2023-03-13T15:47:29;12.70;99.90
4081;DHT22;2055;50.074;8.436;2023-03-13T15:49:54;12.70;99.90
4081;DHT22;2055;50.074;8.436;2023-03-13T15:52:20;12.70;99.90
4081;DHT22;2055;50.074;8.436;2023-03-13T15:54:48;12.60;99.90
4081;DHT22;2055;50.074;8.436;2023-03-13T15:57:15;12.40;99.90
4081;DHT22;2055;50.074;8.436;2023-03-13T15:59:42;12.60;99.90
4081;DHT22;2055;50.074;8.436;2023-03-13T16:02:14;12.50;99.90
4081;DHT22;2055;50.074;8.436;2023-03-13T16:04:40;12.50;99.90
4081;DHT22;2055;50.074;8.436;2023-03-13T16:07:13;12.50;99.90
4081;DHT22;2055;50.074;8.436;2023-03-13T16:09:40;12.60;99.90
4081;DHT22;2055;50.074;8.436;2023-03-13T16:12:06;12.50;99.90
4081;DHT22;2055;50.074;8.436;2023-03-13T16:14:31;12.40;99.90
4081;DHT22;2055;50.074;8.436;2023-03-13T16:16:57;12.20;99.90
4081;DHT22;2055;50.074;8.436;2023-03-13T16:19:22;12.30;99.90
4081;DHT22;2055;50.074;8.436;2023-03-13T16:21:48;12.30;99.90
4081;DHT22;2055;50.074;8.436;2023-03-13T16:24:14;12.30;99.90
4081;DHT22;2055;50.074;8.436;2023-03-13T16:26:42;12.60;99.90
4081;DHT22;2055;50.074;8.436;2023-03-13T16:29:10;12.30;99.90
4081;DHT22;2055;50.074;8.436;2023-03-13T16:31:37;12.20;99.90
4081;DHT22;2055;50.074;8.436;2023-03-13T16:34:02;12.20;99.90
4081;DHT22;2055;50.074;8.436;2023-03-13T16:36:30;12.20;99.90
4081;DHT22;2055;50.074;8.436;2023-03-13T16:39:01;12.10;99.90
4081;DHT22;2055;50.074;8.436;2023-03-13T16:41:29;12.10;99.90
4081;DHT22;2055;50.074;8.436;2023-03-13T16:43:55;12.00;99.90
4081;DHT22;2055;50.074;8.436;2023-03-13T16:46:31;12.00;99.90
4081;DHT22;2055;50.074;8.436;2023-03-13T16:48:59;12.00;99.90
4081;DHT22;2055;50.074;8.436;2023-03-13T16:51:26;12.00;99.90
4081;DHT22;2055;50.074;8.436;2023-03-13T16:53:53;12.00;99.90
4081;DHT22;2055;50.074;8.436;2023-03-13T16:56:27;11.90;99.90
4081;DHT22;2055;50.074;8.436;2023-03-13T16:58:53;12.00;99.90
4081;DHT22;2055;50.074;8.436;2023-03-13T17:01:20;11.90;99.90
4081;DHT22;2055;50.074;8.436;2023-03-13T17:03:45;11.90;99.90
4081;DHT22;2055;50.074;8.436;2023-03-13T17:06:20;11.90;99.90
4081;DHT22;2055;50.074;8.436;2023-03-13T17:08:46;11.90;99.90
4081;DHT22;2055;50.074;8.436;2023-03-13T17:11:13;11.80;99.90
4081;DHT22;2055;50.074;8.436;2023-03-13T17:13:41;11.80;99.90
4081;DHT22;2055;50.074;8.436;2023-03-13T17:16:15;11.80;99.90
4081;DHT22;2055;50.074;8.436;2023-03-13T17:18:42;11.80;99.90
4081;DHT22;2055;50.074;8.436;2023-03-13T17:21:11;11.80;99.90
4081;DHT22;2055;50.074;8.436;2023-03-13T17:23:37;11.80;99.90
4081;DHT22;2055;50.074;8.436;2023-03-13T17:26:03;11.70;99.90
4081;DHT22;2055;50.074;8.436;2023-03-13T17:28:28;11.70;99.90
4081;DHT22;2055;50.074;8.436;2023-03-13T17:30:54;11.70;99.90
4081;DHT22;2055;50.074;8.436;2023-03-13T17:33:19;11.70;99.90
4081;DHT22;2055;50.074;8.436;2023-03-13T17:35:45;11.60;99.90
4081;DHT22;2055;50.074;8.436;2023-03-13T17:38:10;11.50;99.90
4081;DHT22;2055;50.074;8.436;2023-03-13T17:40:36;11.50;99.90